Tombstone, AZ

12:21 AM MST on July 28, 2017 (GMT -0700)
Coronado Heights | | Change Station
Active Advisory: Areal Flood Advisory Active Notice: Areal Flood Advisory

Elev 4524 ft 31.72 °N, 110.06 °W | Updated 3 minutes ago

Rain
Rain
65.0 °F
Feels Like 65.0 °F
N
6.0
Wind Variable Wind from West

Today
High -- | Low -- °F
--% Chance of Precip.
Yesterday
High -- | Low -- °F
Precip. -- in
Pressure 29.97 in
Visibility 8.0 miles
Clouds Overcast 9500 ft
Dew Point 64 °F
Humidity 98%
Rainfall 0.00 in
Snow Depth Not available.
5:33 AM 7:19 PM
Waxing Crescent, 28% visible
SPECI KFHU 280705Z AUTO 26012KT 8SM -RA OVC095 19/17 A3018 RMK AO2 PRESFR SLP147
Pressure 29.97 in
Visibility 8.0 miles
Clouds Overcast 9500 ft
Dew Point 64 °F
Humidity 98%
Rainfall 0.00 in
Snow Depth Not available.
5:33 AM 7:19 PM
Waxing Crescent, 28% visible
SPECI KFHU 280705Z AUTO 26012KT 8SM -RA OVC095 19/17 A3018 RMK AO2 PRESFR SLP147

Get Your Daily Forecast Email!

Thanks for signing up!

Be on the lookout for a verification email in your inbox.

You'll start receiving severe weather alerts in your inbox..

×

10-Day Weather Forecast

Almanac

Astronomy

Jul. 28, 2017 Rise Set
Actual Time
Civil Twilight
Nautical Twilight
Astronomical Twilight
Moon
Length of Visible Light
Length of Day
Tomorrow will be .
, % of the Moon is Illuminated

Today's Extremes

State Highs State Lows

Community

WunderPhotos

Category 6

Welcome to Category 6. This is the collective home for Weather Underground's featured writeups by Dr. Jeff Masters (right), Bob Henson (left), Chris Burt, and other regular contributors.

Nearby

Air Quality

  Air Quality AQ Index Pollutant
Not available.

Snow Depth

Station Depth Elevation

Earthquake Activity

City Distance Mag. Time & Date
Minimum magnitude displayed is 2.5.

Coastal Water Temperatures

Place Temperature

Stations

Nearby Weather Stations

Station Location Temp. Windchill Dew Point Humidity Wind Precip. Elev Updated Type
                   

Watches & Warnings

Areal Flood Advisory
Issued: 11:22 PM MDT Jul. 27, 2017 – National Weather Service

The National Weather Service in Tucson has issued a

* small stream flood advisory for...
south central Santa Cruz County in southeastern Arizona...

* until 215 am MST

* at 1121 PM MST, the Nogales wash had spiked to 6 feet, or 1800
cfs. Moderate rainfall had moved into the area from the east, near
and south of the border. Elevated flow is expected to continue in
the Nogales wash.

* Some locations that may experience flooding include...
Nogales wash area.

This includes the following streams and drainages... Santa Cruz river
and Potrero creek.

Precautionary/preparedness actions...

A flood advisory means river or stream flows are elevated, or ponding
of water in urban or other areas is occurring or is imminent.


Lat... Lon 3143 11099 3142 11093 3133 11086 3133 11097


Meyer